Time;durP1;ratioP1;P1;durP2;ratioP2;P2;SDS_P1;SDS_P2;PMS_P1;PMS_P2;Temp;Humidity;BMP_temperature;BMP_pressure;BME280_temperature;BME280_humidity;BME280_pressure;Samples;Min_cycle;Max_cycle;Signal;HPM_P1;HPM_P2
2022/04/20 00:00:09;;;;;;;47.50;20.88;;;;;;;;;;5109258;28;20054;-89
2022/04/20 00:02:35;;;;;;;55.55;22.75;;;;;;;;;;5102186;28;20028;-89
2022/04/20 00:05:00;;;;;;;54.30;23.55;;;;;;;;;;5104191;28;20036;-89
2022/04/20 00:07:26;;;;;;;47.53;21.73;;;;;;;;;;5105228;28;20441;-90
2022/04/20 00:09:51;;;;;;;44.60;21.08;;;;;;;;;;5111929;28;20051;-91
2022/04/20 00:12:17;;;;;;;44.40;20.85;;;;;;;;;;5105323;28;20043;-91
2022/04/20 00:14:42;;;;;;;43.22;19.35;;;;;;;;;;5102654;28;20051;-91
2022/04/20 00:17:08;;;;;;;53.88;20.67;;;;;;;;;;5100610;28;20020;-90
2022/04/20 00:19:33;;;;;;;53.08;19.55;;;;;;;;;;5102612;28;20497;-88
2022/04/20 00:21:59;;;;;;;39.85;18.25;;;;;;;;;;5103029;28;20028;-89
2022/04/20 00:24:24;;;;;;;41.55;19.60;;;;;;;;;;5106225;28;20028;-89
2022/04/20 00:26:49;;;;;;;43.47;18.30;;;;;;;;;;5096669;28;20043;-92
2022/04/20 00:29:15;;;;;;;48.03;19.75;;;;;;;;;;5105360;28;20053;-92
2022/04/20 00:31:42;;;;;;;43.67;17.98;;;;;;;;;;5101918;28;20071;-90
2022/04/20 00:34:09;;;;;;;39.25;17.25;;;;;;;;;;5101182;28;20024;-91
2022/04/20 00:36:34;;;;;;;47.45;17.55;;;;;;;;;;5098558;28;20061;-89
2022/04/20 00:39:00;;;;;;;42.47;16.65;;;;;;;;;;5095487;28;20091;-89
2022/04/20 00:41:25;;;;;;;39.95;17.08;;;;;;;;;;5097158;28;20046;-90
2022/04/20 00:43:51;;;;;;;34.30;15.88;;;;;;;;;;5085455;28;20034;-91
2022/04/20 00:46:19;;;;;;;34.13;16.20;;;;;;;;;;5103551;28;20119;-91
2022/04/20 00:48:44;;;;;;;32.20;15.50;;;;;;;;;;5103459;28;20032;-89
2022/04/20 00:51:10;;;;;;;35.50;15.65;;;;;;;;;;5092287;28;20097;-86
2022/04/20 00:53:35;;;;;;;34.92;15.20;;;;;;;;;;5117475;28;20016;-87
2022/04/20 00:56:00;;;;;;;31.65;14.85;;;;;;;;;;5116460;28;20051;-91
2022/04/20 00:58:26;;;;;;;36.55;15.88;;;;;;;;;;5110221;28;20028;-87
2022/04/20 01:00:51;;;;;;;33.75;15.43;;;;;;;;;;5110532;28;20024;-89
2022/04/20 01:03:17;;;;;;;34.42;15.05;;;;;;;;;;5111090;28;20079;-90
2022/04/20 01:05:43;;;;;;;34.45;15.85;;;;;;;;;;5095844;28;20024;-89
2022/04/20 01:08:08;;;;;;;30.30;14.73;;;;;;;;;;5108490;28;20055;-88
2022/04/20 01:10:34;;;;;;;37.28;15.57;;;;;;;;;;5110356;28;20033;-81
2022/04/20 01:12:59;;;;;;;36.25;15.23;;;;;;;;;;5112526;28;20028;-89
2022/04/20 01:15:25;;;;;;;30.77;14.80;;;;;;;;;;5106886;28;20029;-89
2022/04/20 01:17:50;;;;;;;33.28;15.52;;;;;;;;;;5109809;28;20056;-88
2022/04/20 01:20:16;;;;;;;36.42;16.80;;;;;;;;;;5116038;28;20040;-86
2022/04/20 01:22:42;;;;;;;36.45;15.10;;;;;;;;;;5115479;28;20017;-86
2022/04/20 01:25:08;;;;;;;40.78;15.88;;;;;;;;;;5111705;28;20020;-90
2022/04/20 01:27:34;;;;;;;32.25;15.55;;;;;;;;;;5109298;28;20028;-89
2022/04/20 01:30:00;;;;;;;38.42;15.40;;;;;;;;;;5110139;28;20028;-88
2022/04/20 01:32:25;;;;;;;36.75;15.52;;;;;;;;;;5112097;28;20066;-88
2022/04/20 01:34:52;;;;;;;43.88;19.25;;;;;;;;;;5109754;28;20085;-90
2022/04/20 01:37:18;;;;;;;41.40;16.58;;;;;;;;;;5103589;28;20008;-91
2022/04/20 01:39:43;;;;;;;30.98;14.77;;;;;;;;;;5108030;28;20074;-89
2022/04/20 01:42:10;;;;;;;35.53;15.57;;;;;;;;;;5102704;28;20047;-91
2022/04/20 01:44:36;;;;;;;36.63;14.75;;;;;;;;;;5097809;28;20028;-91
2022/04/20 01:47:02;;;;;;;35.20;14.98;;;;;;;;;;5097711;28;20384;-91
2022/04/20 01:49:27;;;;;;;38.53;16.55;;;;;;;;;;5097993;28;20032;-91
2022/04/20 01:51:54;;;;;;;38.95;16.65;;;;;;;;;;5100692;28;20039;-83
2022/04/20 01:54:19;;;;;;;35.10;15.73;;;;;;;;;;5106016;28;20028;-92
2022/04/20 01:56:46;;;;;;;32.63;15.65;;;;;;;;;;5096464;28;20024;-90
2022/04/20 01:59:12;;;;;;;39.45;17.17;;;;;;;;;;5096912;28;20028;-91
2022/04/20 02:04:38;;;;;;;;;;;;;;;;;;5055431;28;20134;-90
2022/04/20 02:07:04;;;;;;;35.08;15.23;;;;;;;;;;5088464;28;19981;-90
2022/04/20 02:09:30;;;;;;;36.05;15.85;;;;;;;;;;5096454;28;20032;-91
2022/04/20 02:11:55;;;;;;;32.60;15.98;;;;;;;;;;5101898;28;20125;-89
2022/04/20 02:14:21;;;;;;;38.65;15.90;;;;;;;;;;5112396;28;20035;-91
2022/04/20 02:16:46;;;;;;;32.00;14.93;;;;;;;;;;5109839;28;20063;-91
2022/04/20 02:19:12;;;;;;;35.88;15.98;;;;;;;;;;5102603;28;20032;-90
2022/04/20 02:21:37;;;;;;;39.83;16.83;;;;;;;;;;5110568;28;20020;-92
2022/04/20 02:24:03;;;;;;;36.53;16.75;;;;;;;;;;5098840;28;20028;-88
2022/04/20 02:26:28;;;;;;;33.70;15.63;;;;;;;;;;5096938;28;20031;-91
2022/04/20 02:28:54;;;;;;;34.45;15.43;;;;;;;;;;5095999;28;20028;-89
2022/04/20 02:31:19;;;;;;;37.55;15.18;;;;;;;;;;5097848;28;20034;-91
2022/04/20 02:33:45;;;;;;;38.25;16.13;;;;;;;;;;5101372;28;20032;-90
2022/04/20 02:36:11;;;;;;;38.38;15.45;;;;;;;;;;5101655;28;20498;-91
2022/04/20 02:38:36;;;;;;;38.35;16.42;;;;;;;;;;5095578;28;20133;-91
2022/04/20 02:41:02;;;;;;;41.20;15.63;;;;;;;;;;5078638;28;20024;-91
2022/04/20 02:43:27;;;;;;;32.88;15.20;;;;;;;;;;5097569;28;20081;-90
2022/04/20 02:45:54;;;;;;;33.53;16.08;;;;;;;;;;5101533;28;20036;-89
2022/04/20 02:48:20;;;;;;;35.55;16.33;;;;;;;;;;5088606;28;20445;-90
2022/04/20 02:50:46;;;;;;;38.88;17.60;;;;;;;;;;5093648;28;20028;-90
2022/04/20 02:53:13;;;;;;;39.33;17.67;;;;;;;;;;5107118;28;20028;-90
2022/04/20 02:55:39;;;;;;;46.17;18.48;;;;;;;;;;5119040;28;20050;-87
2022/04/20 02:58:04;;;;;;;49.33;21.30;;;;;;;;;;5101599;28;20030;-81
2022/04/20 03:00:31;;;;;;;49.08;21.85;;;;;;;;;;5118168;28;20032;-82
2022/04/20 03:02:56;;;;;;;38.90;17.83;;;;;;;;;;5118603;28;20012;-90
2022/04/20 03:05:22;;;;;;;42.35;18.60;;;;;;;;;;5118310;28;20028;-90
2022/04/20 03:07:49;;;;;;;41.22;18.15;;;;;;;;;;5112860;28;20104;-91
2022/04/20 03:10:15;;;;;;;42.00;17.95;;;;;;;;;;5110021;28;20035;-91
2022/04/20 03:12:40;;;;;;;35.22;16.90;;;;;;;;;;5105169;28;20032;-90
2022/04/20 03:15:06;;;;;;;44.70;18.25;;;;;;;;;;5108091;28;20349;-90
2022/04/20 03:17:32;;;;;;;42.70;18.67;;;;;;;;;;5105716;28;20039;-91
2022/04/20 03:19:57;;;;;;;44.00;18.15;;;;;;;;;;5102888;28;20028;-91
2022/04/20 03:22:23;;;;;;;40.20;19.10;;;;;;;;;;5097357;28;20538;-89
2022/04/20 03:24:48;;;;;;;38.13;18.23;;;;;;;;;;5095786;28;20115;-88
2022/04/20 03:27:14;;;;;;;42.17;17.63;;;;;;;;;;5095795;28;20032;-91
2022/04/20 03:29:41;;;;;;;51.03;19.70;;;;;;;;;;5107066;28;20032;-90
2022/04/20 03:32:10;;;;;;;38.42;15.52;;;;;;;;;;5102881;28;20031;-91
2022/04/20 03:34:36;;;;;;;27.25;12.73;;;;;;;;;;5101981;28;20427;-89
2022/04/20 03:37:02;;;;;;;23.38;11.25;;;;;;;;;;5110654;28;20028;-89
2022/04/20 03:39:28;;;;;;;35.35;14.27;;;;;;;;;;5086888;28;20084;-88
2022/04/20 03:41:53;;;;;;;26.83;12.57;;;;;;;;;;5103203;28;20449;-88
2022/04/20 03:44:19;;;;;;;31.67;14.45;;;;;;;;;;5102645;28;20046;-89
2022/04/20 03:46:45;;;;;;;30.17;13.40;;;;;;;;;;5098822;28;20052;-90
2022/04/20 03:49:11;;;;;;;44.55;17.95;;;;;;;;;;5099104;28;20120;-91
2022/04/20 03:51:37;;;;;;;36.72;15.30;;;;;;;;;;5095469;28;20031;-92
2022/04/20 03:54:02;;;;;;;42.13;16.25;;;;;;;;;;5098542;28;20087;-90
2022/04/20 03:57:03;;;;;;;35.45;13.02;;;;;;;;;;5113230;28;20079;-83
2022/04/20 03:59:13;;;;;;;28.40;12.73;;;;;;;;;;5113509;28;20046;-89
2022/04/20 04:01:39;;;;;;;29.95;11.52;;;;;;;;;;5100225;28;20051;-88
2022/04/20 04:04:05;;;;;;;27.73;13.00;;;;;;;;;;5097886;28;20077;-90
2022/04/20 04:06:31;;;;;;;33.30;14.13;;;;;;;;;;5096700;28;20032;-91
2022/04/20 04:08:56;;;;;;;39.63;14.85;;;;;;;;;;5093750;28;20039;-90
2022/04/20 04:11:21;;;;;;;29.00;12.98;;;;;;;;;;5102286;28;20051;-87
2022/04/20 04:13:47;;;;;;;32.60;13.95;;;;;;;;;;5102491;28;20105;-91
2022/04/20 04:16:13;;;;;;;30.50;13.23;;;;;;;;;;5113597;28;20016;-83
2022/04/20 04:18:39;;;;;;;33.83;13.40;;;;;;;;;;5112472;28;20031;-83
2022/04/20 04:21:04;;;;;;;31.33;13.20;;;;;;;;;;5094497;28;20411;-81
2022/04/20 04:23:30;;;;;;;33.38;14.23;;;;;;;;;;5094610;28;20028;-80
2022/04/20 04:25:55;;;;;;;31.80;14.35;;;;;;;;;;5094514;28;20047;-79
2022/04/20 04:28:21;;;;;;;26.25;12.80;;;;;;;;;;5094386;28;20498;-78
2022/04/20 04:30:46;;;;;;;37.80;13.45;;;;;;;;;;5093891;28;20191;-79
2022/04/20 04:33:12;;;;;;;27.67;11.95;;;;;;;;;;5094708;28;20045;-79
2022/04/20 04:35:37;;;;;;;24.15;11.70;;;;;;;;;;5094413;28;20039;-79
2022/04/20 04:38:03;;;;;;;28.20;12.57;;;;;;;;;;5094109;28;20039;-80
2022/04/20 04:40:28;;;;;;;29.40;12.60;;;;;;;;;;5094612;28;20035;-80
2022/04/20 04:42:53;;;;;;;26.23;12.80;;;;;;;;;;5095430;28;20028;-80
2022/04/20 04:50:47;;;;;;;29.40;12.52;;;;;;;;;;5094583;28;20261;-78
2022/04/20 04:53:13;;;;;;;28.25;12.82;;;;;;;;;;5096176;28;20032;-77
2022/04/20 04:55:39;;;;;;;32.60;12.00;;;;;;;;;;5095763;28;20062;-79
2022/04/20 04:58:04;;;;;;;25.92;12.35;;;;;;;;;;5109767;28;20097;-80
2022/04/20 05:00:30;;;;;;;25.65;12.48;;;;;;;;;;5110026;28;20031;-79
2022/04/20 05:02:55;;;;;;;27.13;11.98;;;;;;;;;;5102204;28;20122;-79
2022/04/20 05:05:21;;;;;;;30.48;12.73;;;;;;;;;;5097392;28;20032;-79
2022/04/20 05:07:46;;;;;;;31.10;12.60;;;;;;;;;;5090781;28;20085;-78
2022/04/20 05:10:11;;;;;;;30.60;12.57;;;;;;;;;;5092113;28;20525;-82
2022/04/20 05:12:37;;;;;;;30.23;12.45;;;;;;;;;;5092433;28;20048;-83
2022/04/20 05:15:03;;;;;;;33.67;12.88;;;;;;;;;;5110754;28;20039;-82
2022/04/20 05:17:28;;;;;;;34.05;14.32;;;;;;;;;;5125851;28;20023;-83
2022/04/20 05:19:54;;;;;;;29.98;13.82;;;;;;;;;;5118275;28;20048;-84
2022/04/20 05:22:19;;;;;;;35.58;13.27;;;;;;;;;;5117778;28;20356;-89
2022/04/20 05:24:45;;;;;;;33.45;15.85;;;;;;;;;;5116986;28;20027;-85
2022/04/20 05:27:13;;;;;;;31.90;13.70;;;;;;;;;;5096564;28;20042;-87
2022/04/20 05:29:39;;;;;;;28.85;13.25;;;;;;;;;;5105516;28;20051;-85
2022/04/20 05:32:05;;;;;;;33.67;14.88;;;;;;;;;;5097539;28;20040;-84
2022/04/20 05:34:33;;;;;;;39.28;15.25;;;;;;;;;;5099754;28;20043;-87
2022/04/20 05:42:26;;;;;;;34.95;16.13;;;;;;;;;;5124934;28;20030;-91
2022/04/20 05:44:52;;;;;;;44.97;16.83;;;;;;;;;;5105316;28;20065;-87
2022/04/20 05:47:19;;;;;;;29.90;13.90;;;;;;;;;;5119751;28;20637;-89
2022/04/20 05:49:45;;;;;;;45.55;15.77;;;;;;;;;;5131976;28;20078;-90
2022/04/20 05:52:13;;;;;;;36.42;16.38;;;;;;;;;;5116486;28;20028;-85
2022/04/20 05:54:38;;;;;;;40.60;16.48;;;;;;;;;;5113652;28;20118;-83
2022/04/20 05:57:04;;;;;;;37.00;16.52;;;;;;;;;;5123134;28;20071;-84
2022/04/20 05:59:30;;;;;;;38.78;17.17;;;;;;;;;;5130533;28;20031;-89
2022/04/20 06:01:55;;;;;;;44.45;17.90;;;;;;;;;;5124490;27;20035;-93
2022/04/20 06:04:21;;;;;;;40.42;18.05;;;;;;;;;;5122755;28;20040;-88
2022/04/20 06:06:46;;;;;;;43.55;15.77;;;;;;;;;;5122942;28;20091;-90
2022/04/20 06:09:12;;;;;;;39.88;17.23;;;;;;;;;;5122681;28;20426;-86
2022/04/20 06:11:38;;;;;;;44.25;17.90;;;;;;;;;;5130252;28;20055;-90
2022/04/20 06:14:08;;;;;;;40.72;17.30;;;;;;;;;;5122827;28;20555;-92
2022/04/20 06:16:34;;;;;;;38.20;16.63;;;;;;;;;;5128783;28;20034;-89
2022/04/20 06:19:00;;;;;;;38.35;15.85;;;;;;;;;;5128898;28;20058;-88
2022/04/20 06:21:25;;;;;;;45.40;18.25;;;;;;;;;;5127321;28;20065;-90
2022/04/20 06:23:51;;;;;;;35.40;16.42;;;;;;;;;;5126843;28;20042;-90
2022/04/20 06:26:19;;;;;;;42.38;16.55;;;;;;;;;;5127461;28;20043;-92
2022/04/20 06:28:45;;;;;;;41.85;18.85;;;;;;;;;;5128667;27;20048;-92
2022/04/20 06:31:10;;;;;;;44.50;19.58;;;;;;;;;;5127203;28;20067;-93
2022/04/20 06:33:40;;;;;;;47.72;17.95;;;;;;;;;;5130777;28;20049;-91
2022/04/20 06:36:05;;;;;;;42.45;18.20;;;;;;;;;;5125791;28;20147;-86
2022/04/20 06:38:31;;;;;;;47.97;15.68;;;;;;;;;;5120759;28;20020;-83
2022/04/20 06:40:58;;;;;;;45.03;19.10;;;;;;;;;;5106590;28;20028;-85
2022/04/20 06:43:24;;;;;;;46.72;18.90;;;;;;;;;;5119942;28;20607;-87
2022/04/20 06:45:55;;;;;;;44.22;18.17;;;;;;;;;;5118603;28;20087;-85
2022/04/20 06:48:20;;;;;;;;;;;;;;;;;;5100790;28;20168;-87
2022/04/20 06:50:46;;;;;;;38.15;17.17;;;;;;;;;;5121441;28;19943;-83
2022/04/20 06:58:50;;;;;;;40.95;16.58;;;;;;;;;;5126553;28;20095;-89
2022/04/20 07:03:59;;;;;;;38.05;15.48;;;;;;;;;;5123062;22;20060;-89
2022/04/20 07:06:28;;;;;;;32.30;15.27;;;;;;;;;;5102474;28;20028;-90
2022/04/20 07:09:02;;;;;;;31.15;14.77;;;;;;;;;;5074790;28;20036;-91
2022/04/20 07:11:29;;;;;;;34.58;14.77;;;;;;;;;;5105140;28;20025;-90
2022/04/20 07:13:57;;;;;;;32.88;14.35;;;;;;;;;;5115721;28;20113;-90
2022/04/20 07:16:23;;;;;;;32.63;15.05;;;;;;;;;;5064425;28;20020;-82
2022/04/20 07:18:49;;;;;;;37.30;15.32;;;;;;;;;;5055682;28;20070;-84
2022/04/20 07:21:18;;;;;;;28.73;13.80;;;;;;;;;;5080338;28;20028;-79
2022/04/20 07:23:43;;;;;;;28.48;13.80;;;;;;;;;;5086700;28;20032;-84
2022/04/20 07:26:10;;;;;;;34.55;14.85;;;;;;;;;;5081177;28;20437;-79
2022/04/20 07:28:36;;;;;;;27.80;12.45;;;;;;;;;;5081227;28;20118;-81
2022/04/20 07:31:04;;;;;;;31.60;14.63;;;;;;;;;;5078291;28;20055;-82
2022/04/20 07:34:00;;;;;;;33.00;14.13;;;;;;;;;;5042946;28;20377;-79
2022/04/20 07:36:27;;;;;;;33.97;15.20;;;;;;;;;;5091824;28;20043;-81
2022/04/20 07:38:53;;;;;;;29.10;14.00;;;;;;;;;;5083187;28;20097;-86
2022/04/20 07:41:19;;;;;;;31.05;13.95;;;;;;;;;;5071706;28;20051;-86
2022/04/20 07:43:45;;;;;;;33.17;14.68;;;;;;;;;;5080469;28;20461;-86
2022/04/20 07:46:12;;;;;;;38.25;16.05;;;;;;;;;;5089295;28;20040;-85
2022/04/20 07:48:38;;;;;;;31.52;14.18;;;;;;;;;;5086785;28;20047;-87
2022/04/20 07:51:03;;;;;;;31.02;14.13;;;;;;;;;;5086196;28;20004;-90
2022/04/20 07:53:29;;;;;;;38.05;14.23;;;;;;;;;;5093594;28;20488;-89
2022/04/20 07:55:55;;;;;;;30.98;15.18;;;;;;;;;;5111758;28;20023;-90
2022/04/20 07:58:21;;;;;;;30.83;14.88;;;;;;;;;;5082187;28;20012;-84
2022/04/20 08:00:49;;;;;;;39.55;16.60;;;;;;;;;;5091621;28;20036;-88
2022/04/20 08:03:17;;;;;;;35.97;16.42;;;;;;;;;;5108927;28;20048;-89
2022/04/20 08:05:48;;;;;;;38.50;17.20;;;;;;;;;;5077334;28;20085;-88
2022/04/20 08:08:15;;;;;;;38.15;17.27;;;;;;;;;;5041530;28;20028;-81
2022/04/20 08:10:42;;;;;;;43.30;18.55;;;;;;;;;;5083078;28;20036;-89
2022/04/20 08:15:52;;;;;;;47.25;19.70;;;;;;;;;;5093497;28;20034;-78
2022/04/20 08:18:17;;;;;;;46.53;20.80;;;;;;;;;;5063085;28;20055;-81
2022/04/20 08:20:44;;;;;;;52.28;20.63;;;;;;;;;;5099350;28;20533;-82
2022/04/20 08:23:09;;;;;;;55.22;21.33;;;;;;;;;;5097458;28;20577;-81
2022/04/20 08:25:35;;;;;;;61.97;21.48;;;;;;;;;;5080050;28;20029;-80
2022/04/20 08:28:07;;;;;;;44.13;18.42;;;;;;;;;;5102187;28;20053;-85
2022/04/20 08:30:36;;;;;;;45.75;19.27;;;;;;;;;;5050027;28;20037;-88
2022/04/20 08:33:02;;;;;;;46.75;19.35;;;;;;;;;;5049710;28;20028;-88
2022/04/20 08:35:29;;;;;;;43.85;19.33;;;;;;;;;;5071861;28;20026;-83
2022/04/20 08:37:56;;;;;;;40.78;19.20;;;;;;;;;;5066225;28;20046;-80
2022/04/20 08:40:22;;;;;;;51.88;22.60;;;;;;;;;;5094279;28;20871;-78
2022/04/20 08:42:47;;;;;;;53.75;22.30;;;;;;;;;;5072891;28;20036;-80
2022/04/20 08:45:19;;;;;;;61.90;25.23;;;;;;;;;;5061283;28;20060;-88
2022/04/20 08:47:53;;;;;;;58.22;22.70;;;;;;;;;;5066833;28;20037;-88
2022/04/20 08:50:40;;;;;;;58.35;23.52;;;;;;;;;;5061735;28;20044;-90
2022/04/20 08:53:07;;;;;;;55.63;22.52;;;;;;;;;;5048226;28;20119;-90
2022/04/20 08:58:59;;;;;;;50.20;21.00;;;;;;;;;;5088989;28;20039;-82
2022/04/20 09:01:28;;;;;;;48.28;21.17;;;;;;;;;;5088684;28;20036;-82
2022/04/20 09:03:54;;;;;;;49.63;20.52;;;;;;;;;;5110085;28;20040;-86
2022/04/20 09:06:28;;;;;;;42.60;19.52;;;;;;;;;;5104600;28;20024;-86
2022/04/20 09:08:56;;;;;;;39.78;18.63;;;;;;;;;;5078429;28;20492;-84
2022/04/20 09:11:22;;;;;;;36.97;18.30;;;;;;;;;;5068652;28;20039;-87
2022/04/20 09:13:51;;;;;;;41.92;17.42;;;;;;;;;;5061207;28;20019;-87
2022/04/20 09:16:16;;;;;;;38.97;19.23;;;;;;;;;;5082320;28;20073;-89
2022/04/20 09:18:42;;;;;;;43.10;19.35;;;;;;;;;;5051333;22;20049;-84
2022/04/20 09:21:09;;;;;;;47.53;19.77;;;;;;;;;;5016263;28;20029;-85
2022/04/20 09:23:38;;;;;;;51.25;21.67;;;;;;;;;;5050274;28;20468;-81
2022/04/20 09:26:17;;;;;;;43.10;19.45;;;;;;;;;;5046225;28;20501;-78
2022/04/20 09:29:21;;;;;;;41.67;18.48;;;;;;;;;;5076675;28;20055;-92
2022/04/20 09:32:09;;;;;;;38.40;17.13;;;;;;;;;;4959796;28;20043;-82
2022/04/20 09:34:35;;;;;;;40.45;16.73;;;;;;;;;;4972286;28;20042;-89
2022/04/20 09:37:14;;;;;;;46.83;19.55;;;;;;;;;;5048151;28;20373;-87
2022/04/20 09:39:44;;;;;;;33.35;15.43;;;;;;;;;;5068086;28;20115;-86
2022/04/20 09:42:20;;;;;;;34.97;14.20;;;;;;;;;;5061687;28;20040;-84
2022/04/20 09:45:25;;;;;;;31.30;14.43;;;;;;;;;;5040232;28;20021;-86
2022/04/20 09:50:36;;;;;;;30.33;13.95;;;;;;;;;;5067398;28;20036;-90
2022/04/20 09:53:10;;;;;;;32.78;14.18;;;;;;;;;;5074035;28;20047;-87
2022/04/20 09:55:36;;;;;;;41.83;16.00;;;;;;;;;;5076869;28;20045;-87
2022/04/20 09:58:24;;;;;;;35.10;16.48;;;;;;;;;;5022194;28;20027;-93
2022/04/20 10:00:53;;;;;;;32.60;15.25;;;;;;;;;;5070650;28;20092;-92
2022/04/20 10:03:31;;;;;;;34.15;16.17;;;;;;;;;;5057333;28;20063;-91
2022/04/20 10:05:57;;;;;;;33.83;16.45;;;;;;;;;;5031600;28;20048;-91
2022/04/20 10:08:23;;;;;;;25.60;13.02;;;;;;;;;;5083909;28;20088;-89
2022/04/20 10:10:49;;;;;;;25.35;12.82;;;;;;;;;;5090721;28;20039;-90
2022/04/20 10:13:15;;;;;;;26.45;12.95;;;;;;;;;;5024698;28;20048;-87
2022/04/20 10:18:25;;;;;;;29.25;12.43;;;;;;;;;;5059636;28;20094;-85
2022/04/20 10:20:55;;;;;;;24.15;12.18;;;;;;;;;;5063818;28;20033;-85
2022/04/20 10:23:22;;;;;;;28.35;12.52;;;;;;;;;;5077793;28;20035;-85
2022/04/20 10:25:52;;;;;;;25.75;13.35;;;;;;;;;;5070196;28;20562;-90
2022/04/20 10:28:40;;;;;;;29.42;13.90;;;;;;;;;;5062271;28;20428;-87
2022/04/20 10:31:26;;;;;;;25.13;12.90;;;;;;;;;;5061430;28;20127;-84
2022/04/20 10:33:56;;;;;;;32.67;12.77;;;;;;;;;;5091473;28;20118;-88
2022/04/20 10:36:37;;;;;;;27.77;12.52;;;;;;;;;;5074910;28;20024;-87
2022/04/20 10:39:25;;;;;;;30.10;13.90;;;;;;;;;;5087240;28;20041;-85
2022/04/20 10:42:18;;;;;;;32.17;15.20;;;;;;;;;;5081642;28;20043;-87
2022/04/20 10:45:06;;;;;;;35.22;14.80;;;;;;;;;;5071625;28;20052;-93
2022/04/20 10:47:45;;;;;;;28.02;11.70;;;;;;;;;;5083268;28;20040;-86
2022/04/20 10:50:21;;;;;;;32.10;14.38;;;;;;;;;;5090436;28;20024;-87
2022/04/20 10:52:52;;;;;;;31.58;15.15;;;;;;;;;;5081124;28;20016;-84
2022/04/20 10:55:23;;;;;;;40.40;18.30;;;;;;;;;;5058970;28;20020;-81
2022/04/20 10:57:50;;;;;;;28.33;12.60;;;;;;;;;;5066511;28;20025;-84
2022/04/20 11:00:19;;;;;;;27.42;12.48;;;;;;;;;;5050225;28;20040;-84
2022/04/20 11:02:48;;;;;;;25.13;11.95;;;;;;;;;;5076916;28;20016;-81
2022/04/20 11:05:16;;;;;;;19.33;9.63;;;;;;;;;;5085210;28;20029;-86
2022/04/20 11:07:59;;;;;;;24.17;10.50;;;;;;;;;;5077051;28;20071;-88
2022/04/20 11:10:25;;;;;;;21.75;9.85;;;;;;;;;;5083812;28;20063;-87
2022/04/20 11:18:38;;;;;;;24.48;11.57;;;;;;;;;;5083423;28;20044;-84
2022/04/20 11:21:03;;;;;;;21.25;10.48;;;;;;;;;;5057048;28;20035;-82
2022/04/20 11:23:51;;;;;;;27.13;11.05;;;;;;;;;;5072086;28;20392;-84
2022/04/20 11:26:24;;;;;;;26.13;12.25;;;;;;;;;;5057663;28;20041;-84
2022/04/20 11:28:50;;;;;;;27.20;12.00;;;;;;;;;;5054922;28;20070;-82
2022/04/20 11:31:16;;;;;;;22.73;10.35;;;;;;;;;;5073754;28;20567;-81
2022/04/20 11:33:41;;;;;;;22.23;11.40;;;;;;;;;;5084905;28;20024;-80
2022/04/20 11:36:09;;;;;;;27.70;12.23;;;;;;;;;;5076704;28;20009;-81
2022/04/20 11:38:36;;;;;;;41.65;19.52;;;;;;;;;;5036811;28;20563;-82
2022/04/20 11:41:01;;;;;;;25.67;12.73;;;;;;;;;;5071878;28;20397;-80
2022/04/20 11:43:27;;;;;;;23.67;10.73;;;;;;;;;;5036625;28;20032;-82
2022/04/20 11:45:54;;;;;;;25.00;12.75;;;;;;;;;;5070619;28;20393;-81
2022/04/20 11:48:22;;;;;;;26.48;12.32;;;;;;;;;;5072262;28;20024;-81
2022/04/20 11:50:56;;;;;;;27.75;12.55;;;;;;;;;;5040579;28;20071;-81
2022/04/20 11:53:30;;;;;;;26.80;13.23;;;;;;;;;;5056114;28;20029;-81
2022/04/20 11:55:56;;;;;;;33.17;14.40;;;;;;;;;;5061626;28;20119;-81
2022/04/20 11:58:21;;;;;;;34.25;14.85;;;;;;;;;;5053611;28;20119;-81
2022/04/20 12:00:47;;;;;;;38.00;15.27;;;;;;;;;;5071864;28;20036;-81
2022/04/20 12:03:12;;;;;;;30.38;15.30;;;;;;;;;;5054792;28;20060;-81
2022/04/20 12:05:37;;;;;;;30.52;14.10;;;;;;;;;;5054542;28;20448;-82
2022/04/20 12:08:03;;;;;;;38.05;16.20;;;;;;;;;;5038239;28;20028;-80
2022/04/20 12:10:32;;;;;;;37.42;17.45;;;;;;;;;;5022830;28;20114;-80
2022/04/20 12:13:02;;;;;;;41.13;17.88;;;;;;;;;;5056954;28;20030;-80
2022/04/20 12:15:31;;;;;;;64.93;24.83;;;;;;;;;;5067623;28;20023;-83
2022/04/20 12:17:57;;;;;;;56.92;23.08;;;;;;;;;;5081024;28;20282;-85
2022/04/20 12:20:25;;;;;;;48.25;21.77;;;;;;;;;;5054613;28;20373;-81
2022/04/20 12:23:04;;;;;;;34.95;15.93;;;;;;;;;;5072884;28;20384;-82
2022/04/20 12:25:29;;;;;;;40.50;17.08;;;;;;;;;;5055361;28;20028;-81
2022/04/20 12:28:35;;;;;;;39.47;18.25;;;;;;;;;;5055572;28;20414;-81
2022/04/20 12:30:46;;;;;;;36.97;16.33;;;;;;;;;;5071960;28;20123;-84
2022/04/20 12:33:24;;;;;;;76.55;26.38;;;;;;;;;;5073019;28;20028;-80
2022/04/20 12:36:03;;;;;;;74.78;26.30;;;;;;;;;;5068728;28;20024;-83
2022/04/20 12:38:31;;;;;;;52.00;20.23;;;;;;;;;;5056224;28;20062;-82
2022/04/20 12:40:57;;;;;;;44.22;18.55;;;;;;;;;;5038641;28;20028;-81
2022/04/20 12:43:22;;;;;;;55.53;22.25;;;;;;;;;;5038034;28;20028;-82
2022/04/20 12:45:48;;;;;;;49.05;19.42;;;;;;;;;;5072775;28;20135;-83
2022/04/20 12:48:13;;;;;;;52.55;21.17;;;;;;;;;;5039150;28;20170;-81
2022/04/20 12:50:40;;;;;;;56.33;22.90;;;;;;;;;;5056440;28;20033;-83
2022/04/20 12:53:06;;;;;;;53.92;21.13;;;;;;;;;;5056676;28;20031;-83
2022/04/20 13:02:01;;;;;;;48.75;19.15;;;;;;;;;;5082424;28;20020;-81
2022/04/20 13:04:11;;;;;;;41.20;16.35;;;;;;;;;;5073463;28;20032;-81
2022/04/20 13:06:37;;;;;;;44.60;20.65;;;;;;;;;;5056421;28;20028;-82
2022/04/20 13:09:03;;;;;;;51.10;20.77;;;;;;;;;;5073981;28;20028;-81
2022/04/20 13:11:29;;;;;;;44.78;18.27;;;;;;;;;;5073969;28;20039;-82
2022/04/20 13:13:56;;;;;;;39.17;17.92;;;;;;;;;;5056922;28;20036;-81
2022/04/20 13:16:24;;;;;;;38.15;18.13;;;;;;;;;;5050190;28;20032;-80
2022/04/20 13:18:51;;;;;;;47.47;21.17;;;;;;;;;;5052392;28;20060;-83
2022/04/20 13:21:16;;;;;;;37.90;17.63;;;;;;;;;;5052535;28;20430;-80
2022/04/20 13:23:41;;;;;;;45.33;18.10;;;;;;;;;;5036121;28;20025;-82
2022/04/20 13:28:51;;;;;;;71.78;28.00;;;;;;;;;;5053721;28;20456;-81
2022/04/20 13:31:17;;;;;;;64.75;25.67;;;;;;;;;;5053713;28;20029;-81
2022/04/20 13:33:42;;;;;;;59.13;24.33;;;;;;;;;;5052448;28;20033;-80
2022/04/20 13:36:08;;;;;;;67.32;27.60;;;;;;;;;;5069060;28;20036;-80
2022/04/20 13:38:34;;;;;;;58.80;26.83;;;;;;;;;;5040648;28;20044;-81
2022/04/20 13:41:00;;;;;;;53.30;25.15;;;;;;;;;;5057300;28;20029;-80
2022/04/20 13:43:26;;;;;;;47.55;21.73;;;;;;;;;;5056653;28;20327;-80
2022/04/20 13:45:51;;;;;;;43.10;21.35;;;;;;;;;;5056954;28;20040;-80
2022/04/20 13:48:17;;;;;;;38.10;18.52;;;;;;;;;;5057524;28;20029;-80
2022/04/20 13:50:45;;;;;;;40.33;18.67;;;;;;;;;;5057431;28;20039;-80
2022/04/20 13:53:10;;;;;;;33.28;17.58;;;;;;;;;;5057688;28;20119;-80
2022/04/20 13:55:36;;;;;;;36.22;17.25;;;;;;;;;;5057262;28;20060;-80
2022/04/20 13:58:01;;;;;;;33.35;16.45;;;;;;;;;;5061162;28;20109;-80
2022/04/20 14:00:28;;;;;;;30.88;14.88;;;;;;;;;;5056781;28;20397;-81
2022/04/20 14:02:54;;;;;;;28.23;12.25;;;;;;;;;;5056908;28;20025;-81
2022/04/20 14:05:19;;;;;;;21.88;11.60;;;;;;;;;;5055965;28;20021;-80
2022/04/20 14:07:45;;;;;;;23.83;12.35;;;;;;;;;;5056912;28;20029;-80
2022/04/20 14:10:10;;;;;;;25.48;12.45;;;;;;;;;;5057127;28;20029;-80
2022/04/20 14:12:36;;;;;;;24.42;12.52;;;;;;;;;;5055614;28;20048;-80
2022/04/20 14:15:02;;;;;;;27.73;13.65;;;;;;;;;;5056545;28;20032;-80
2022/04/20 14:17:28;;;;;;;26.85;13.25;;;;;;;;;;5063784;28;20038;-80
2022/04/20 14:19:54;;;;;;;28.63;11.75;;;;;;;;;;5076866;28;20084;-80
2022/04/20 14:22:19;;;;;;;29.15;13.05;;;;;;;;;;5075693;28;20044;-80
2022/04/20 14:24:46;;;;;;;22.27;12.15;;;;;;;;;;5042104;28;20033;-80
2022/04/20 14:32:39;;;;;;;45.28;18.38;;;;;;;;;;5061172;28;20114;-80
2022/04/20 14:35:06;;;;;;;25.20;13.45;;;;;;;;;;5025494;28;20074;-80
2022/04/20 14:37:31;;;;;;;22.02;10.77;;;;;;;;;;5035175;28;20036;-80
2022/04/20 14:39:57;;;;;;;19.52;9.93;;;;;;;;;;5042386;28;20085;-80
2022/04/20 14:42:22;;;;;;;19.25;8.55;;;;;;;;;;5041852;28;20029;-80
2022/04/20 14:44:48;;;;;;;16.85;8.20;;;;;;;;;;5075939;28;20043;-80
2022/04/20 14:47:14;;;;;;;11.93;6.88;;;;;;;;;;5041565;28;20041;-80
2022/04/20 14:49:40;;;;;;;12.35;6.90;;;;;;;;;;5076249;28;20028;-81
2022/04/20 14:52:07;;;;;;;11.52;6.38;;;;;;;;;;5041736;28;20435;-80
2022/04/20 14:54:34;;;;;;;14.27;7.90;;;;;;;;;;5058218;28;20031;-80
2022/04/20 14:56:59;;;;;;;15.02;7.53;;;;;;;;;;5061291;28;20055;-80
2022/04/20 14:59:25;;;;;;;17.25;8.50;;;;;;;;;;5045969;28;20069;-81
2022/04/20 15:01:50;;;;;;;14.77;7.28;;;;;;;;;;5058146;28;20032;-80
2022/04/20 15:04:16;;;;;;;12.10;7.55;;;;;;;;;;5025140;28;20056;-80
2022/04/20 15:06:41;;;;;;;16.70;8.63;;;;;;;;;;5057895;28;20024;-81
2022/04/20 15:09:08;;;;;;;20.58;10.68;;;;;;;;;;5057824;28;20123;-80
2022/04/20 15:11:37;;;;;;;30.77;13.75;;;;;;;;;;5025077;28;20522;-80
2022/04/20 15:14:03;;;;;;;23.38;10.32;;;;;;;;;;5057581;28;20036;-80